createdAt,value
2018-07-31T00:00:46.995Z,2.13
2018-07-31T00:03:14.659Z,2.17
2018-07-31T00:05:42.414Z,2.00
2018-07-31T00:08:10.135Z,2.13
2018-07-31T00:10:37.863Z,2.37
2018-07-31T00:13:05.603Z,2.00
2018-07-31T00:15:33.288Z,1.87
2018-07-31T00:18:00.991Z,2.40
2018-07-31T00:20:28.690Z,2.07
2018-07-31T00:22:56.422Z,2.10
2018-07-31T00:25:24.102Z,2.20
2018-07-31T00:27:51.710Z,1.90
2018-07-31T00:30:19.375Z,2.27
2018-07-31T00:32:47.123Z,2.20
2018-07-31T00:35:14.851Z,2.00
2018-07-31T00:37:42.466Z,2.33
2018-07-31T00:40:10.201Z,1.67
2018-07-31T00:42:37.955Z,2.27
2018-07-31T00:45:06.247Z,1.80
2018-07-31T00:47:34.011Z,1.67
2018-07-31T00:50:01.710Z,1.57
2018-07-31T00:52:29.464Z,2.17
2018-07-31T00:54:57.157Z,2.33
2018-07-31T00:57:24.879Z,1.77
2018-07-31T00:59:52.580Z,2.10
2018-07-31T01:02:20.283Z,2.20
2018-07-31T01:04:48.005Z,1.93
2018-07-31T01:07:15.748Z,2.10
2018-07-31T01:09:43.448Z,3.03
2018-07-31T01:12:11.077Z,2.80
2018-07-31T01:14:38.768Z,2.50
2018-07-31T01:17:06.522Z,2.20
2018-07-31T01:19:34.286Z,2.43
2018-07-31T01:22:02.009Z,3.20
2018-07-31T01:24:29.743Z,2.60
2018-07-31T01:26:57.483Z,2.50
2018-07-31T01:29:25.163Z,2.30
2018-07-31T01:31:52.750Z,2.13
2018-07-31T01:34:20.447Z,2.90
2018-07-31T01:36:48.155Z,2.90
2018-07-31T01:39:15.845Z,2.00
2018-07-31T01:41:43.538Z,2.40
2018-07-31T01:44:11.299Z,2.13
2018-07-31T01:46:38.986Z,2.17
2018-07-31T01:49:06.683Z,1.73
2018-07-31T01:51:34.374Z,2.40
2018-07-31T01:54:02.106Z,3.07
2018-07-31T01:56:29.838Z,2.60
2018-07-31T01:58:57.559Z,3.17
2018-07-31T02:01:25.262Z,2.53
2018-07-31T02:03:53.003Z,2.53
2018-07-31T02:06:25.516Z,2.90
2018-07-31T02:08:53.207Z,2.57
2018-07-31T02:11:20.903Z,3.50
2018-07-31T02:13:48.614Z,3.80
2018-07-31T02:16:16.339Z,2.60
2018-07-31T02:18:44.030Z,2.70
2018-07-31T02:21:11.748Z,2.40
2018-07-31T02:23:39.458Z,2.77
2018-07-31T02:26:07.230Z,2.77
2018-07-31T02:28:34.800Z,2.50
2018-07-31T02:31:02.568Z,2.97
2018-07-31T02:33:30.267Z,2.77
2018-07-31T02:35:57.999Z,3.17
2018-07-31T02:38:25.691Z,2.70
2018-07-31T02:40:53.405Z,2.83
2018-07-31T02:43:21.043Z,2.33
2018-07-31T02:45:48.763Z,2.43
2018-07-31T02:48:16.479Z,2.97
2018-07-31T02:50:44.172Z,3.27
2018-07-31T02:53:11.891Z,3.10
2018-07-31T02:55:39.576Z,3.07
2018-07-31T02:58:07.340Z,2.47
2018-07-31T03:00:34.931Z,3.33
2018-07-31T03:03:02.647Z,3.03
2018-07-31T03:05:30.333Z,2.90
2018-07-31T03:07:58.116Z,2.50
2018-07-31T03:10:25.782Z,2.87
2018-07-31T03:12:53.511Z,3.30
2018-07-31T03:15:21.194Z,3.13
2018-07-31T03:17:48.782Z,2.97
2018-07-31T03:20:16.483Z,3.00
2018-07-31T03:22:44.207Z,3.40
2018-07-31T03:25:11.951Z,2.80
2018-07-31T03:27:39.634Z,3.23
2018-07-31T03:30:07.357Z,3.53
2018-07-31T03:32:35.087Z,3.00
2018-07-31T03:35:02.922Z,3.20
2018-07-31T03:37:30.623Z,3.20
2018-07-31T03:39:58.323Z,3.37
2018-07-31T03:42:25.933Z,2.60
2018-07-31T03:44:53.640Z,3.73
2018-07-31T03:47:21.410Z,3.70
2018-07-31T03:49:48.987Z,2.87
2018-07-31T03:52:16.719Z,3.83
2018-07-31T03:54:44.415Z,3.60
2018-07-31T03:57:12.133Z,3.13
2018-07-31T03:59:39.845Z,3.50
2018-07-31T04:02:07.644Z,3.47
2018-07-31T04:04:35.341Z,2.80
2018-07-31T04:07:03.026Z,3.43
2018-07-31T04:09:30.747Z,3.10
2018-07-31T04:11:58.507Z,4.50
2018-07-31T04:14:26.219Z,3.73
2018-07-31T04:16:53.971Z,3.30
2018-07-31T04:19:21.682Z,2.80
2018-07-31T04:21:49.424Z,3.63
2018-07-31T04:24:17.107Z,3.33
2018-07-31T04:26:44.820Z,3.53
2018-07-31T04:29:12.518Z,3.90
2018-07-31T04:31:40.232Z,3.80
2018-07-31T04:34:07.939Z,3.87
2018-07-31T04:36:35.626Z,3.47
2018-07-31T04:39:06.128Z,3.57
2018-07-31T04:41:33.825Z,3.10
2018-07-31T04:44:01.535Z,2.97
2018-07-31T04:46:29.252Z,3.67
2018-07-31T04:48:56.977Z,3.53
2018-07-31T04:51:24.703Z,3.80
2018-07-31T04:53:52.412Z,3.70
2018-07-31T04:56:20.088Z,3.87
2018-07-31T04:58:47.798Z,3.70
2018-07-31T05:01:15.576Z,2.73
2018-07-31T05:03:43.381Z,3.37
2018-07-31T05:06:11.068Z,3.50
2018-07-31T05:08:38.776Z,4.50
2018-07-31T05:11:06.579Z,3.00
2018-07-31T05:13:34.332Z,3.17
2018-07-31T05:16:02.046Z,3.57
2018-07-31T05:18:29.757Z,5.10
2018-07-31T05:20:57.473Z,2.90
2018-07-31T05:23:25.178Z,4.00
2018-07-31T05:25:52.867Z,3.37
2018-07-31T05:28:20.595Z,4.20
2018-07-31T05:30:48.312Z,4.57
2018-07-31T05:33:16.028Z,4.20
2018-07-31T05:35:43.742Z,5.50
2018-07-31T05:38:11.500Z,5.03
2018-07-31T05:40:39.190Z,3.00
2018-07-31T05:43:06.923Z,3.73
2018-07-31T05:45:34.675Z,4.60
2018-07-31T05:48:02.399Z,4.50
2018-07-31T05:50:30.014Z,6.10
2018-07-31T05:52:57.720Z,5.47
2018-07-31T05:55:25.411Z,6.23
2018-07-31T05:57:53.119Z,6.03
2018-07-31T06:00:20.788Z,5.80
2018-07-31T06:02:48.503Z,5.17
2018-07-31T06:05:16.211Z,5.70
2018-07-31T06:07:43.932Z,6.20
2018-07-31T06:10:11.629Z,5.67
2018-07-31T06:12:39.350Z,5.33
2018-07-31T06:15:07.722Z,6.40
2018-07-31T06:17:35.459Z,6.10
2018-07-31T06:20:03.544Z,5.80
2018-07-31T06:22:31.160Z,6.27
2018-07-31T06:24:58.868Z,5.27
2018-07-31T06:27:26.484Z,5.10
2018-07-31T06:29:54.175Z,6.20
2018-07-31T06:32:21.928Z,5.07
2018-07-31T06:34:49.626Z,6.30
2018-07-31T06:37:17.358Z,5.67
2018-07-31T06:39:45.067Z,5.10
2018-07-31T06:42:12.791Z,5.30
2018-07-31T06:44:40.791Z,5.40
2018-07-31T06:47:08.528Z,5.50
2018-07-31T06:49:36.249Z,5.13
2018-07-31T06:52:03.975Z,5.33
2018-07-31T06:54:31.593Z,6.53
2018-07-31T06:56:59.324Z,4.90
2018-07-31T06:59:27.072Z,7.10
2018-07-31T07:01:54.795Z,6.27
2018-07-31T07:04:22.491Z,5.90
2018-07-31T07:06:50.219Z,6.47
2018-07-31T07:09:17.941Z,6.10
2018-07-31T07:11:45.670Z,5.67
2018-07-31T07:14:13.267Z,5.87
2018-07-31T07:16:40.987Z,6.37
2018-07-31T07:19:08.606Z,6.00
2018-07-31T07:21:36.315Z,6.60
2018-07-31T07:24:04.038Z,7.00
2018-07-31T07:26:31.776Z,5.57
2018-07-31T07:28:59.535Z,5.83
2018-07-31T07:31:27.206Z,6.50
2018-07-31T07:33:54.977Z,5.10
2018-07-31T07:36:22.605Z,6.87
2018-07-31T07:38:50.332Z,5.57
2018-07-31T07:41:17.986Z,5.37
2018-07-31T07:43:45.687Z,6.90
2018-07-31T07:46:13.383Z,6.60
2018-07-31T07:48:41.085Z,5.00
2018-07-31T07:51:08.867Z,5.20
2018-07-31T07:53:36.554Z,5.37
2018-07-31T07:56:04.134Z,5.60
2018-07-31T07:58:31.826Z,5.40
2018-07-31T08:00:59.508Z,4.50
2018-07-31T08:03:27.222Z,5.10
2018-07-31T08:05:54.910Z,4.30
2018-07-31T08:08:22.603Z,4.63
2018-07-31T08:10:50.283Z,3.90
2018-07-31T08:13:17.866Z,4.57
2018-07-31T08:15:45.580Z,4.90
2018-07-31T08:18:13.291Z,4.70
2018-07-31T08:20:40.967Z,4.20
2018-07-31T08:23:08.695Z,3.47
2018-07-31T08:25:36.270Z,3.70
2018-07-31T08:28:03.998Z,3.43
2018-07-31T08:30:31.700Z,2.70
2018-07-31T08:32:59.401Z,3.07
2018-07-31T08:35:27.639Z,3.47
2018-07-31T08:37:55.512Z,2.27
2018-07-31T08:40:23.219Z,2.67
2018-07-31T08:42:50.919Z,2.20
2018-07-31T08:45:18.626Z,1.87
2018-07-31T08:47:46.371Z,2.50
2018-07-31T08:50:14.084Z,1.70
2018-07-31T08:52:41.771Z,1.80
2018-07-31T08:55:09.468Z,2.50
2018-07-31T08:57:37.177Z,2.53
2018-07-31T09:00:05.783Z,2.10
2018-07-31T09:02:33.466Z,1.70
2018-07-31T09:05:01.147Z,2.80
2018-07-31T09:07:28.850Z,2.60
2018-07-31T09:09:56.816Z,2.67
2018-07-31T09:12:24.499Z,1.47
2018-07-31T09:14:52.204Z,2.07
2018-07-31T09:17:19.904Z,1.90
2018-07-31T09:19:47.598Z,2.27
2018-07-31T09:22:15.201Z,1.70
2018-07-31T09:24:42.907Z,1.90
2018-07-31T09:27:10.796Z,2.00
2018-07-31T09:29:38.494Z,1.20
2018-07-31T09:32:06.179Z,2.40
2018-07-31T09:34:38.362Z,2.30
2018-07-31T09:37:06.184Z,1.80
2018-07-31T09:39:33.875Z,1.90
2018-07-31T09:42:01.627Z,1.57
2018-07-31T09:44:29.346Z,1.70
2018-07-31T09:46:57.089Z,1.23
2018-07-31T09:49:24.779Z,1.23
2018-07-31T09:51:52.503Z,1.03
2018-07-31T09:54:20.190Z,1.43
2018-07-31T09:56:47.809Z,1.60
2018-07-31T09:59:15.567Z,1.90
2018-07-31T10:01:43.279Z,1.57
2018-07-31T10:04:10.870Z,1.30
2018-07-31T10:06:38.556Z,1.83
2018-07-31T10:09:08.475Z,1.53
2018-07-31T10:11:36.166Z,1.60
2018-07-31T10:14:03.984Z,1.23
2018-07-31T10:16:31.688Z,1.33
2018-07-31T10:18:59.503Z,1.63
2018-07-31T10:21:27.194Z,1.80
2018-07-31T10:23:55.011Z,1.57
2018-07-31T10:26:22.729Z,1.27
2018-07-31T10:28:50.505Z,1.17
2018-07-31T10:31:18.200Z,1.53
2018-07-31T10:33:45.991Z,1.70
2018-07-31T10:36:13.717Z,1.47
2018-07-31T10:38:41.329Z,1.50
2018-07-31T10:41:09.070Z,1.50
2018-07-31T10:43:36.826Z,1.03
2018-07-31T10:46:04.583Z,1.40
2018-07-31T10:48:32.170Z,1.30
2018-07-31T10:50:59.936Z,1.53
2018-07-31T10:53:28.054Z,2.20
2018-07-31T10:55:55.777Z,1.23
2018-07-31T10:58:23.550Z,1.50
2018-07-31T11:00:51.248Z,1.23
2018-07-31T11:03:18.959Z,1.60
2018-07-31T11:05:46.724Z,1.87
2018-07-31T11:08:14.507Z,1.27
2018-07-31T11:10:42.252Z,1.60
2018-07-31T11:13:10.027Z,1.50
2018-07-31T11:15:37.746Z,1.77
2018-07-31T11:18:05.371Z,1.70
2018-07-31T11:20:33.109Z,1.03
2018-07-31T11:23:00.854Z,1.40
2018-07-31T11:25:28.616Z,1.07
2018-07-31T11:27:56.339Z,1.53
2018-07-31T11:30:24.072Z,1.30
2018-07-31T11:32:52.120Z,1.33
2018-07-31T11:35:19.864Z,1.10
2018-07-31T11:37:47.656Z,1.27
2018-07-31T11:40:15.376Z,1.53
2018-07-31T11:42:43.229Z,1.47
2018-07-31T11:45:10.983Z,1.00
2018-07-31T11:47:38.706Z,1.43
2018-07-31T11:50:06.505Z,1.20
2018-07-31T11:52:34.269Z,1.50
2018-07-31T11:55:01.990Z,1.33
2018-07-31T11:57:29.584Z,1.23
2018-07-31T11:59:57.315Z,1.50
2018-07-31T12:02:25.080Z,1.90
2018-07-31T12:04:52.787Z,1.30
2018-07-31T12:07:20.513Z,1.10
2018-07-31T12:09:48.239Z,2.43
2018-07-31T12:12:16.004Z,1.23
2018-07-31T12:14:43.788Z,1.90
2018-07-31T12:17:11.405Z,3.00
2018-07-31T12:19:39.137Z,1.43
2018-07-31T12:22:06.867Z,1.87
2018-07-31T12:24:34.609Z,1.47
2018-07-31T12:27:02.370Z,1.20
2018-07-31T12:29:30.152Z,1.50
2018-07-31T12:31:57.911Z,1.43
2018-07-31T12:34:25.625Z,1.30
2018-07-31T12:36:53.499Z,1.43
2018-07-31T12:39:21.247Z,1.23
2018-07-31T12:41:48.967Z,1.40
2018-07-31T12:44:16.683Z,1.20
2018-07-31T12:46:44.419Z,1.60
2018-07-31T12:49:12.063Z,1.50
2018-07-31T12:51:39.815Z,1.70
2018-07-31T12:54:07.572Z,1.33
2018-07-31T12:56:35.319Z,1.40
2018-07-31T12:59:03.111Z,1.60
2018-07-31T13:01:30.813Z,2.30
2018-07-31T13:03:58.426Z,8.93
2018-07-31T13:06:26.517Z,2.67
2018-07-31T13:08:54.276Z,1.20
2018-07-31T13:11:22.027Z,1.30
2018-07-31T13:13:49.876Z,1.20
2018-07-31T13:16:17.637Z,2.37
2018-07-31T13:18:45.452Z,1.57
2018-07-31T13:21:13.199Z,1.90
2018-07-31T13:23:40.934Z,1.40
2018-07-31T13:26:08.719Z,1.40
2018-07-31T13:28:36.539Z,1.30
2018-07-31T13:31:04.276Z,1.50
2018-07-31T13:33:32.085Z,1.40
2018-07-31T13:35:59.850Z,1.50
2018-07-31T13:38:27.618Z,2.13
2018-07-31T13:40:56.275Z,1.90
2018-07-31T13:43:23.956Z,1.50
2018-07-31T13:45:51.678Z,1.30
2018-07-31T13:48:19.447Z,1.47
2018-07-31T13:50:47.205Z,1.80
2018-07-31T13:53:14.991Z,1.00
2018-07-31T13:55:42.571Z,0.97
2018-07-31T13:58:10.276Z,1.73
2018-07-31T14:00:37.995Z,1.50
2018-07-31T14:03:05.739Z,1.13
2018-07-31T14:05:33.358Z,1.33
2018-07-31T14:08:01.127Z,1.30
2018-07-31T14:10:28.899Z,1.40
2018-07-31T14:12:56.602Z,1.90
2018-07-31T14:15:24.315Z,1.60
2018-07-31T14:17:52.027Z,1.40
2018-07-31T14:20:19.598Z,2.57
2018-07-31T14:22:47.328Z,5.90
2018-07-31T14:25:15.061Z,1.50
2018-07-31T14:27:42.757Z,1.20
2018-07-31T14:30:10.498Z,2.40
2018-07-31T14:32:38.236Z,1.53
2018-07-31T14:35:06.047Z,1.30
2018-07-31T14:37:33.675Z,2.03
2018-07-31T14:40:01.375Z,1.20
2018-07-31T14:42:29.136Z,1.60
2018-07-31T14:44:56.896Z,1.30
2018-07-31T14:47:24.687Z,1.30
2018-07-31T14:49:52.274Z,1.13
2018-07-31T14:52:19.967Z,1.67
2018-07-31T14:54:47.699Z,1.17
2018-07-31T14:57:15.383Z,2.10
2018-07-31T14:59:43.105Z,1.10
2018-07-31T15:02:10.666Z,1.30
2018-07-31T15:04:38.284Z,1.73
2018-07-31T15:07:06.051Z,0.97
2018-07-31T15:09:33.767Z,1.60
2018-07-31T15:12:01.463Z,1.03
2018-07-31T15:14:29.207Z,1.30
2018-07-31T15:16:56.997Z,0.90
2018-07-31T15:19:24.704Z,1.10
2018-07-31T15:21:52.448Z,1.17
2018-07-31T15:24:20.151Z,1.37
2018-07-31T15:26:47.839Z,1.50
2018-07-31T15:29:15.538Z,1.17
2018-07-31T15:31:43.221Z,1.27
2018-07-31T15:34:10.927Z,1.30
2018-07-31T15:36:38.602Z,1.60
2018-07-31T15:39:08.786Z,1.00
2018-07-31T15:41:36.479Z,1.20
2018-07-31T15:44:04.182Z,1.00
2018-07-31T15:46:31.879Z,1.40
2018-07-31T15:48:59.600Z,0.87
2018-07-31T15:51:27.291Z,1.40
2018-07-31T15:53:54.898Z,0.90
2018-07-31T15:56:22.554Z,1.70
2018-07-31T15:58:50.251Z,1.80
2018-07-31T16:01:17.971Z,1.10
2018-07-31T16:03:45.719Z,1.20
2018-07-31T16:06:13.466Z,1.20
2018-07-31T16:08:41.235Z,0.70
2018-07-31T16:11:08.987Z,1.47
2018-07-31T16:13:36.670Z,0.80
2018-07-31T16:16:04.370Z,0.80
2018-07-31T16:18:32.049Z,0.97
2018-07-31T16:20:59.803Z,0.87
2018-07-31T16:23:27.524Z,0.70
2018-07-31T16:25:55.433Z,0.90
2018-07-31T16:28:23.198Z,1.20
2018-07-31T16:30:50.899Z,1.10
2018-07-31T16:33:18.510Z,1.40
2018-07-31T16:35:46.254Z,1.60
2018-07-31T16:38:14.012Z,1.63
2018-07-31T16:40:41.741Z,1.60
2018-07-31T16:43:09.501Z,0.87
2018-07-31T16:45:37.252Z,1.50
2018-07-31T16:48:05.035Z,1.00
2018-07-31T16:50:32.751Z,2.50
2018-07-31T16:53:00.488Z,1.60
2018-07-31T16:55:28.188Z,1.53
2018-07-31T16:57:55.915Z,1.27
2018-07-31T17:00:23.635Z,1.53
2018-07-31T17:02:51.355Z,1.20
2018-07-31T17:05:19.068Z,0.90
2018-07-31T17:07:46.805Z,1.20
2018-07-31T17:10:14.599Z,1.20
2018-07-31T17:12:42.387Z,1.43
2018-07-31T17:15:10.153Z,1.50
2018-07-31T17:17:38.043Z,1.37
2018-07-31T17:20:05.749Z,1.60
2018-07-31T17:22:33.467Z,1.90
2018-07-31T17:25:01.232Z,1.33
2018-07-31T17:27:28.976Z,1.20
2018-07-31T17:29:56.632Z,1.50
2018-07-31T17:32:24.348Z,1.20
2018-07-31T17:34:52.134Z,1.20
2018-07-31T17:37:19.851Z,1.40
2018-07-31T17:39:48.356Z,1.47
2018-07-31T17:42:16.185Z,1.70
2018-07-31T17:44:44.115Z,1.27
2018-07-31T17:47:11.933Z,1.67
2018-07-31T17:49:39.656Z,1.33
2018-07-31T17:52:07.476Z,1.10
2018-07-31T17:54:35.174Z,4.10
2018-07-31T17:57:02.836Z,1.90
2018-07-31T17:59:30.532Z,2.33
2018-07-31T18:01:58.236Z,1.23
2018-07-31T18:04:25.948Z,0.90
2018-07-31T18:06:53.625Z,0.97
2018-07-31T18:09:21.330Z,3.83
2018-07-31T18:11:49.010Z,1.30
2018-07-31T18:14:16.743Z,1.57
2018-07-31T18:16:44.406Z,1.90
2018-07-31T18:19:12.119Z,2.47
2018-07-31T18:21:39.873Z,2.10
2018-07-31T18:24:07.755Z,1.67
2018-07-31T18:26:35.759Z,1.53
2018-07-31T18:29:03.534Z,1.20
2018-07-31T18:31:31.326Z,1.43
2018-07-31T18:33:59.076Z,1.03
2018-07-31T18:36:26.999Z,1.20
2018-07-31T18:38:54.608Z,1.10
2018-07-31T18:41:22.429Z,1.10
2018-07-31T18:43:50.074Z,1.40
2018-07-31T18:46:17.835Z,1.60
2018-07-31T18:48:45.518Z,1.63
2018-07-31T18:51:13.258Z,1.70
2018-07-31T18:53:40.947Z,1.00
2018-07-31T18:56:08.664Z,1.20
2018-07-31T18:58:36.567Z,1.20
2018-07-31T19:01:04.359Z,1.70
2018-07-31T19:03:32.236Z,1.53
2018-07-31T19:05:59.971Z,0.90
2018-07-31T19:08:27.538Z,6.37
2018-07-31T19:10:55.315Z,1.60
2018-07-31T19:13:23.168Z,1.70
2018-07-31T19:15:51.086Z,5.73
2018-07-31T19:18:18.832Z,1.27
2018-07-31T19:20:46.605Z,1.50
2018-07-31T19:23:14.307Z,1.60
2018-07-31T19:25:41.929Z,1.77
2018-07-31T19:28:09.742Z,1.40
2018-07-31T19:30:37.375Z,2.23
2018-07-31T19:33:05.116Z,1.73
2018-07-31T19:35:32.779Z,1.57
2018-07-31T19:38:00.483Z,2.73
2018-07-31T19:40:28.259Z,1.80
2018-07-31T19:42:56.009Z,2.00
2018-07-31T19:45:23.768Z,2.20
2018-07-31T19:47:52.043Z,2.17
2018-07-31T19:50:19.891Z,2.37
2018-07-31T19:52:47.579Z,2.80
2018-07-31T19:55:15.320Z,2.63
2018-07-31T19:57:43.091Z,3.43
2018-07-31T20:00:10.902Z,2.33
2018-07-31T20:02:38.690Z,2.43
2018-07-31T20:05:06.812Z,1.80
2018-07-31T20:07:34.526Z,2.50
2018-07-31T20:10:02.325Z,2.30
2018-07-31T20:12:30.059Z,2.47
2018-07-31T20:14:57.835Z,2.70
2018-07-31T20:17:25.559Z,2.20
2018-07-31T20:19:53.134Z,2.60
2018-07-31T20:22:20.868Z,3.30
2018-07-31T20:24:48.627Z,2.53
2018-07-31T20:27:16.426Z,2.50
2018-07-31T20:29:44.139Z,2.20
2018-07-31T20:32:11.926Z,2.23
2018-07-31T20:34:40.008Z,2.77
2018-07-31T20:37:07.776Z,2.37
2018-07-31T20:39:35.367Z,3.03
2018-07-31T20:42:03.095Z,2.97
2018-07-31T20:44:30.655Z,2.97
2018-07-31T20:46:58.316Z,2.40
2018-07-31T20:49:26.368Z,2.40
2018-07-31T20:51:54.118Z,2.47
2018-07-31T20:54:21.896Z,2.77
2018-07-31T20:56:49.648Z,1.97
2018-07-31T20:59:17.379Z,2.20
2018-07-31T21:01:45.115Z,2.17
2018-07-31T21:04:12.819Z,3.17
2018-07-31T21:06:40.539Z,2.43
2018-07-31T21:09:10.187Z,2.30
2018-07-31T21:11:37.899Z,3.00
2018-07-31T21:14:05.714Z,2.73
2018-07-31T21:16:33.475Z,2.20
2018-07-31T21:19:01.246Z,2.67
2018-07-31T21:21:28.952Z,2.47
2018-07-31T21:23:56.680Z,2.90
2018-07-31T21:26:24.392Z,2.60
2018-07-31T21:28:51.954Z,3.20
2018-07-31T21:31:19.604Z,2.73
2018-07-31T21:33:47.321Z,1.90
2018-07-31T21:36:15.039Z,3.70
2018-07-31T21:38:42.598Z,2.93
2018-07-31T21:41:10.295Z,3.30
2018-07-31T21:43:38.034Z,2.10
2018-07-31T21:46:05.647Z,2.43
2018-07-31T21:48:33.372Z,2.40
2018-07-31T21:51:01.988Z,2.83
2018-07-31T21:53:29.729Z,2.03
2018-07-31T21:55:57.423Z,2.40
2018-07-31T21:58:25.207Z,1.83
2018-07-31T22:00:58.591Z,1.70
2018-07-31T22:03:26.372Z,2.27
2018-07-31T22:05:54.203Z,2.47
2018-07-31T22:08:21.903Z,2.53
2018-07-31T22:10:49.666Z,2.57
2018-07-31T22:13:17.374Z,2.00
2018-07-31T22:15:45.144Z,2.60
2018-07-31T22:18:12.885Z,3.37
2018-07-31T22:20:40.709Z,2.43
2018-07-31T22:23:08.643Z,2.70
2018-07-31T22:25:36.416Z,2.30
2018-07-31T22:28:04.176Z,1.80
2018-07-31T22:30:31.922Z,1.97
2018-07-31T22:32:59.706Z,2.40
2018-07-31T22:35:27.459Z,1.83
2018-07-31T22:37:55.291Z,2.10
2018-07-31T22:40:22.910Z,2.03
2018-07-31T22:42:50.659Z,2.23
2018-07-31T22:45:18.396Z,2.10
2018-07-31T22:47:46.220Z,2.00
2018-07-31T22:50:13.964Z,2.30
2018-07-31T22:52:41.755Z,1.93
2018-07-31T22:55:09.588Z,2.20
2018-07-31T22:57:37.363Z,2.17
2018-07-31T23:00:05.538Z,2.17
2018-07-31T23:02:33.347Z,2.37
2018-07-31T23:05:01.183Z,2.00
2018-07-31T23:07:29.021Z,1.73
2018-07-31T23:10:02.519Z,2.53
2018-07-31T23:12:30.635Z,1.83
2018-07-31T23:14:59.286Z,2.53
2018-07-31T23:17:27.607Z,1.60
2018-07-31T23:19:55.395Z,1.97
2018-07-31T23:22:28.736Z,1.87
2018-07-31T23:24:56.495Z,1.73
2018-07-31T23:27:24.292Z,1.50
2018-07-31T23:29:52.034Z,2.40
2018-07-31T23:32:19.860Z,2.40
2018-07-31T23:34:47.825Z,2.10
2018-07-31T23:37:15.456Z,1.87
2018-07-31T23:39:43.162Z,1.70
2018-07-31T23:42:10.917Z,2.17
2018-07-31T23:44:38.724Z,1.50
2018-07-31T23:47:06.539Z,2.43
2018-07-31T23:49:34.160Z,2.10
2018-07-31T23:52:01.947Z,1.80
2018-07-31T23:54:29.678Z,2.17
2018-07-31T23:56:57.459Z,1.50
2018-07-31T23:59:25.296Z,2.10
